createdAt,value
2023-08-23T00:04:35.631Z,98116.72
2023-08-23T00:09:37.481Z,98120.44
2023-08-23T00:14:39.652Z,98115.16
2023-08-23T00:19:41.353Z,98113.56
2023-08-23T00:24:43.048Z,98118.06
2023-08-23T00:29:44.936Z,98115.31
2023-08-23T00:34:46.755Z,98121.47
2023-08-23T00:39:48.447Z,98124.25
2023-08-23T00:44:50.125Z,98124.44
2023-08-23T00:49:52.211Z,98125.19
2023-08-23T00:54:55.893Z,98129.97
2023-08-23T00:59:57.867Z,98126.78
2023-08-23T01:04:59.523Z,98127.81
2023-08-23T01:10:01.200Z,98117.91
2023-08-23T01:15:07.471Z,98121.41
2023-08-23T01:20:11.672Z,98123.03
2023-08-23T01:25:15.287Z,98122.28
2023-08-23T01:30:17.798Z,98111.19
2023-08-23T01:35:24.666Z,98116.59
2023-08-23T01:40:27.158Z,98123.06
2023-08-23T01:45:28.932Z,98118.22
2023-08-23T01:50:30.613Z,98122.31
2023-08-23T01:55:32.356Z,98127.19
2023-08-23T02:00:34.122Z,98130.81
2023-08-23T02:05:35.904Z,98134.06
2023-08-23T02:10:37.742Z,98133.09
2023-08-23T02:15:39.543Z,98130.28
2023-08-23T02:20:41.221Z,98125.19
2023-08-23T02:25:42.918Z,98128.03
2023-08-23T02:30:45.340Z,98132.91
2023-08-23T02:35:48.332Z,98121.22
2023-08-23T02:40:50.227Z,98121.25
2023-08-23T02:45:51.942Z,98111.53
2023-08-23T02:50:53.743Z,98116.00
2023-08-23T02:55:55.422Z,98112.41
2023-08-23T03:00:57.792Z,98117.47
2023-08-23T03:05:59.647Z,98115.25
2023-08-23T03:11:10.770Z,98118.47
2023-08-23T03:16:13.636Z,98111.22
2023-08-23T03:21:15.383Z,98110.38
2023-08-23T03:26:17.163Z,98114.63
2023-08-23T03:31:19.079Z,98111.97
2023-08-23T03:36:22.914Z,98121.09
2023-08-23T03:41:24.742Z,98119.66
2023-08-23T03:46:26.904Z,98121.06
2023-08-23T03:51:28.634Z,98120.06
2023-08-23T03:56:31.089Z,98126.50
2023-08-23T04:01:34.437Z,98126.50
2023-08-23T04:06:36.155Z,98124.88
2023-08-23T04:11:38.096Z,98121.88
2023-08-23T04:16:39.889Z,98132.53
2023-08-23T04:21:41.620Z,98134.75
2023-08-23T04:26:43.477Z,98136.56
2023-08-23T04:31:45.243Z,98136.78
2023-08-23T04:36:55.961Z,98138.38
2023-08-23T04:41:57.647Z,98130.94
2023-08-23T04:47:00.096Z,98135.38
2023-08-23T04:52:04.463Z,98135.78
2023-08-23T04:57:06.865Z,98129.97
2023-08-23T05:02:08.570Z,98140.06
2023-08-23T05:07:10.444Z,98140.78
2023-08-23T05:12:12.624Z,98148.13
2023-08-23T05:17:14.465Z,98145.00
2023-08-23T05:22:16.170Z,98150.63
2023-08-23T05:27:18.080Z,98153.13
2023-08-23T05:32:19.904Z,98159.75
2023-08-23T05:37:21.804Z,98155.63
2023-08-23T05:42:23.718Z,98156.75
2023-08-23T05:47:25.562Z,98157.03
2023-08-23T05:52:27.234Z,98156.19
2023-08-23T05:57:28.875Z,98160.75
2023-08-23T06:02:30.713Z,98153.97
2023-08-23T06:07:32.772Z,98154.72
2023-08-23T06:12:34.420Z,98154.84
2023-08-23T06:17:36.094Z,98163.66
2023-08-23T06:22:37.886Z,98155.03
2023-08-23T06:27:39.716Z,98155.91
2023-08-23T06:32:46.302Z,98161.56
2023-08-23T06:37:48.198Z,98163.22
2023-08-23T06:42:50.583Z,98156.03
2023-08-23T06:47:52.523Z,98169.94
2023-08-23T06:52:54.386Z,98165.28
2023-08-23T06:57:56.698Z,98174.91
2023-08-23T07:02:58.785Z,98179.28
2023-08-23T07:08:00.456Z,98174.59
2023-08-23T07:13:02.399Z,98176.91
2023-08-23T07:18:04.161Z,98181.75
2023-08-23T07:23:05.794Z,98179.72
2023-08-23T07:28:07.448Z,98178.34
2023-08-23T07:33:09.154Z,98187.75
2023-08-23T07:38:10.826Z,98194.88
2023-08-23T07:43:12.484Z,98176.19
2023-08-23T07:48:14.179Z,98172.59
2023-08-23T07:53:16.525Z,98181.06
2023-08-23T07:58:18.456Z,98191.22
2023-08-23T08:03:20.172Z,98190.88
2023-08-23T08:08:28.757Z,98185.00
2023-08-23T08:13:30.430Z,98184.16
2023-08-23T08:18:32.137Z,98199.78
2023-08-23T08:23:33.835Z,98202.06
2023-08-23T08:28:35.564Z,98206.91
2023-08-23T08:33:39.593Z,98211.63
2023-08-23T08:38:41.257Z,98206.91
2023-08-23T08:43:43.132Z,98224.19
2023-08-23T08:48:46.204Z,98219.25
2023-08-23T08:53:50.461Z,98219.63
2023-08-23T08:58:52.441Z,98222.69
2023-08-23T09:03:54.367Z,98226.16
2023-08-23T09:08:56.317Z,98227.81
2023-08-23T09:13:58.008Z,98226.34
2023-08-23T09:18:59.678Z,98225.47
2023-08-23T09:24:01.329Z,98222.81
2023-08-23T09:29:03.919Z,98225.88
2023-08-23T09:34:12.116Z,98224.66
2023-08-23T09:39:13.836Z,98229.75
2023-08-23T09:44:16.825Z,98225.50
2023-08-23T09:49:22.494Z,98224.94
2023-08-23T09:55:15.014Z,98218.00
2023-08-23T10:00:18.221Z,98225.22
2023-08-23T10:05:22.580Z,98216.84
2023-08-23T10:10:25.977Z,98221.81
2023-08-23T10:15:36.836Z,98216.47
2023-08-23T10:20:38.927Z,98216.38
2023-08-23T10:25:43.038Z,98211.94
2023-08-23T10:30:46.369Z,98207.19
2023-08-23T10:35:48.680Z,98201.63
2023-08-23T10:40:50.584Z,98184.03
2023-08-23T10:46:07.480Z,98192.34
2023-08-23T10:51:10.817Z,98193.16
2023-08-23T10:56:12.635Z,98183.63
2023-08-23T11:01:14.382Z,98189.06
2023-08-23T11:06:16.020Z,98187.25
2023-08-23T11:11:17.715Z,98185.78
2023-08-23T11:16:19.456Z,98197.72
2023-08-23T11:21:21.174Z,98180.38
2023-08-23T11:26:22.881Z,98179.63
2023-08-23T11:31:24.567Z,98163.78
2023-08-23T11:36:28.428Z,98166.78
2023-08-23T11:41:32.584Z,98168.53
2023-08-23T11:46:39.426Z,98171.03
2023-08-23T11:51:45.270Z,98163.59
2023-08-23T11:56:47.095Z,98168.16
2023-08-23T12:01:48.796Z,98177.75
2023-08-23T12:06:50.530Z,98172.78
2023-08-23T12:11:54.281Z,98170.38
2023-08-23T12:16:56.437Z,98166.66
2023-08-23T12:21:58.099Z,98165.56
2023-08-23T12:27:00.347Z,98167.09
2023-08-23T12:32:02.077Z,98156.09
2023-08-23T12:37:04.206Z,98151.25
2023-08-23T12:42:06.011Z,98171.22
2023-08-23T12:47:07.832Z,98165.72
2023-08-23T12:52:12.480Z,98157.09
2023-08-23T12:57:16.686Z,98163.47
2023-08-23T13:02:18.456Z,98155.44
2023-08-23T13:07:20.164Z,98161.09
2023-08-23T13:12:21.892Z,98140.22
2023-08-23T13:17:23.790Z,98138.28
2023-08-23T13:22:25.425Z,98157.81
2023-08-23T13:27:27.071Z,98148.78
2023-08-23T13:32:28.876Z,98140.19
2023-08-23T13:37:30.611Z,98140.75
2023-08-23T13:42:32.412Z,98139.72
2023-08-23T13:47:34.143Z,98149.50
2023-08-23T13:52:36.324Z,98134.44
2023-08-23T13:57:38.333Z,98131.38
2023-08-23T14:02:40.122Z,98112.91
2023-08-23T14:07:41.896Z,98122.44
2023-08-23T14:12:43.685Z,98121.16
2023-08-23T14:17:45.495Z,98136.19
2023-08-23T14:22:47.263Z,98124.88
2023-08-23T14:27:49.216Z,98109.38
2023-08-23T14:32:52.167Z,98123.22
2023-08-23T14:37:53.829Z,98122.69
2023-08-23T14:42:55.484Z,98116.75
2023-08-23T14:47:57.224Z,98109.94
2023-08-23T14:52:58.955Z,98112.63
2023-08-23T14:58:00.572Z,98110.34
2023-08-23T15:03:03.975Z,98104.38
2023-08-23T15:08:06.809Z,98108.50
2023-08-23T15:13:09.782Z,98102.91
2023-08-23T15:18:11.499Z,98105.38
2023-08-23T15:23:13.177Z,98087.84
2023-08-23T15:28:15.232Z,98081.06
2023-08-23T15:33:16.972Z,98076.22
2023-08-23T15:38:18.678Z,98071.88
2023-08-23T15:43:20.351Z,98079.97
2023-08-23T15:48:22.197Z,98067.31
2023-08-23T15:53:24.422Z,98070.09
2023-08-23T15:58:26.923Z,98065.44
2023-08-23T16:03:29.225Z,98073.69
2023-08-23T16:08:30.899Z,98070.13
2023-08-23T16:13:34.866Z,98066.31
2023-08-23T16:18:36.591Z,98063.78
2023-08-23T16:23:40.115Z,98055.25
2023-08-23T16:28:43.034Z,98056.25
2023-08-23T16:33:44.755Z,98061.44
2023-08-23T16:38:46.462Z,98058.34
2023-08-23T16:43:49.830Z,98059.66
2023-08-23T16:48:51.539Z,98055.94
2023-08-23T16:53:53.978Z,98054.06
2023-08-23T16:58:58.517Z,98057.50
2023-08-23T17:04:00.234Z,98065.25
2023-08-23T17:09:02.642Z,98066.25
2023-08-23T17:14:04.352Z,98064.53
2023-08-23T17:19:06.131Z,98070.47
2023-08-23T17:24:07.814Z,98066.63
2023-08-23T17:29:09.487Z,98068.31
2023-08-23T17:34:11.167Z,98069.44
2023-08-23T17:39:13.080Z,98058.56
2023-08-23T17:44:14.749Z,98055.06
2023-08-23T17:49:16.589Z,98055.56
2023-08-23T17:54:18.237Z,98063.53
2023-08-23T17:59:19.902Z,98079.31
2023-08-23T18:04:21.568Z,98076.19
2023-08-23T18:09:23.313Z,98086.69
2023-08-23T18:14:24.959Z,98083.47
2023-08-23T18:19:26.622Z,98092.38
2023-08-23T18:24:28.267Z,98087.22
2023-08-23T18:29:29.980Z,98098.56
2023-08-23T18:34:31.656Z,98103.28
2023-08-23T18:39:33.576Z,98104.34
2023-08-23T18:44:35.303Z,98112.47
2023-08-23T18:49:38.391Z,98116.66
2023-08-23T18:54:40.067Z,98109.13
2023-08-23T18:59:41.726Z,98113.97
2023-08-23T19:04:43.661Z,98117.59
2023-08-23T19:09:45.370Z,98121.97
2023-08-23T19:14:47.090Z,98125.38
2023-08-23T19:19:48.825Z,98125.88
2023-08-23T19:24:50.501Z,98119.16
2023-08-23T19:29:52.124Z,98118.47
2023-08-23T19:34:53.799Z,98125.81
2023-08-23T19:39:55.432Z,98125.50
2023-08-23T19:45:00.335Z,98129.63
2023-08-23T19:50:04.095Z,98130.06
2023-08-23T19:55:06.296Z,98127.69
2023-08-23T20:00:09.423Z,98137.09
2023-08-23T20:05:16.531Z,98140.91
2023-08-23T20:10:18.843Z,98146.44
2023-08-23T20:15:20.585Z,98153.97
2023-08-23T20:20:22.303Z,98142.22
2023-08-23T20:25:24.200Z,98153.19
2023-08-23T20:30:25.861Z,98155.00
2023-08-23T20:35:29.306Z,98148.72
2023-08-23T20:40:31.997Z,98154.03
2023-08-23T20:45:33.784Z,98162.81
2023-08-23T20:50:35.820Z,98162.63
2023-08-23T20:55:40.540Z,98164.25
2023-08-23T21:00:42.281Z,98159.44
2023-08-23T21:05:44.955Z,98160.06
2023-08-23T21:10:46.664Z,98171.63
2023-08-23T21:15:49.293Z,98164.81
2023-08-23T21:20:51.587Z,98164.03
2023-08-23T21:25:53.246Z,98167.69
2023-08-23T21:30:54.930Z,98161.25
2023-08-23T21:35:56.583Z,98166.13
2023-08-23T21:41:00.051Z,98169.16
2023-08-23T21:46:03.307Z,98163.31
2023-08-23T21:51:06.265Z,98170.16
2023-08-23T21:56:08.014Z,98171.72
2023-08-23T22:01:10.666Z,98170.50
2023-08-23T22:06:14.324Z,98163.66
2023-08-23T22:11:16.984Z,98163.25
2023-08-23T22:16:21.083Z,98165.66
2023-08-23T22:21:23.031Z,98160.03
2023-08-23T22:26:24.682Z,98164.84
2023-08-23T22:31:26.382Z,98160.59
2023-08-23T22:36:28.091Z,98171.25
2023-08-23T22:41:31.260Z,98162.78
2023-08-23T22:46:33.312Z,98158.50
2023-08-23T22:51:35.340Z,98162.53
2023-08-23T22:56:37.238Z,98164.91
2023-08-23T23:01:38.960Z,98148.91
2023-08-23T23:06:40.641Z,98142.88
2023-08-23T23:11:42.284Z,98144.28
2023-08-23T23:16:44.038Z,98140.78
2023-08-23T23:21:46.289Z,98138.75
2023-08-23T23:26:47.989Z,98137.31
2023-08-23T23:31:49.704Z,98133.88
2023-08-23T23:36:51.493Z,98136.88
2023-08-23T23:41:53.121Z,98134.09
2023-08-23T23:46:57.194Z,98135.63
2023-08-23T23:52:00.500Z,98137.00
2023-08-23T23:57:02.421Z,98144.41
